createdAt,value
2018-12-21T00:02:05.296Z,56.10
2018-12-21T00:04:34.286Z,56.70
2018-12-21T00:07:03.303Z,56.57
2018-12-21T00:09:32.218Z,56.07
2018-12-21T00:12:01.247Z,57.43
2018-12-21T00:14:30.112Z,55.33
2018-12-21T00:16:59.061Z,54.60
2018-12-21T00:19:27.989Z,55.87
2018-12-21T00:21:57.567Z,54.70
2018-12-21T00:24:26.695Z,53.87
2018-12-21T00:26:55.558Z,54.67
2018-12-21T00:29:24.435Z,52.97
2018-12-21T00:31:58.451Z,56.60
2018-12-21T00:34:32.744Z,55.67
2018-12-21T00:37:06.747Z,54.27
2018-12-21T00:39:42.937Z,55.00
2018-12-21T00:42:16.437Z,56.50
2018-12-21T00:44:45.661Z,54.87
2018-12-21T00:47:16.012Z,54.00
2018-12-21T00:49:44.882Z,53.40
2018-12-21T00:52:14.035Z,53.87
2018-12-21T00:54:42.903Z,53.90
2018-12-21T00:57:11.981Z,54.87
2018-12-21T00:59:40.837Z,54.93
2018-12-21T01:02:09.693Z,53.47
2018-12-21T01:04:38.648Z,53.40
2018-12-21T01:07:07.704Z,54.93
2018-12-21T01:09:37.597Z,55.63
2018-12-21T01:12:07.767Z,54.80
2018-12-21T01:14:36.803Z,55.13
2018-12-21T01:17:05.947Z,54.57
2018-12-21T01:19:34.849Z,56.20
2018-12-21T01:22:04.321Z,53.73
2018-12-21T01:24:35.190Z,55.87
2018-12-21T01:27:04.292Z,54.43
2018-12-21T01:29:33.164Z,55.30
2018-12-21T01:32:02.042Z,55.80
2018-12-21T01:34:31.010Z,53.80
2018-12-21T01:36:59.899Z,57.03
2018-12-21T01:39:28.949Z,53.57
2018-12-21T01:42:01.747Z,56.20
2018-12-21T01:44:30.602Z,52.77
2018-12-21T01:46:59.502Z,56.53
2018-12-21T01:49:28.366Z,56.67
2018-12-21T01:51:57.238Z,53.00
2018-12-21T01:54:26.171Z,52.43
2018-12-21T01:56:55.049Z,52.63
2018-12-21T01:59:23.929Z,56.70
2018-12-21T02:01:52.863Z,54.83
2018-12-21T02:04:21.734Z,54.63
2018-12-21T02:06:50.618Z,54.70
2018-12-21T02:09:19.552Z,54.37
2018-12-21T02:11:50.229Z,53.53
2018-12-21T02:14:19.118Z,51.97
2018-12-21T02:16:47.958Z,52.53
2018-12-21T02:19:16.806Z,53.70
2018-12-21T02:21:45.780Z,54.83
2018-12-21T02:24:14.707Z,51.70
2018-12-21T02:26:43.624Z,51.47
2018-12-21T02:29:12.519Z,52.87
2018-12-21T02:31:41.547Z,48.33
2018-12-21T02:34:10.653Z,51.63
2018-12-21T02:36:39.670Z,50.27
2018-12-21T02:39:08.640Z,53.87
2018-12-21T02:41:37.938Z,48.43
2018-12-21T02:44:06.849Z,51.27
2018-12-21T02:46:35.812Z,49.50
2018-12-21T02:49:04.705Z,48.93
2018-12-21T02:51:33.597Z,50.03
2018-12-21T02:54:03.057Z,50.53
2018-12-21T02:56:31.942Z,49.67
2018-12-21T02:59:00.854Z,51.57
2018-12-21T03:01:30.618Z,50.27
2018-12-21T03:03:59.447Z,50.13
2018-12-21T03:06:28.409Z,50.90
2018-12-21T03:08:57.282Z,52.90
2018-12-21T03:11:26.166Z,49.83
2018-12-21T03:13:55.057Z,49.10
2018-12-21T03:16:23.929Z,50.50
2018-12-21T03:18:52.881Z,50.27
2018-12-21T03:21:21.769Z,51.37
2018-12-21T03:23:50.630Z,48.53
2018-12-21T03:26:19.817Z,49.50
2018-12-21T03:28:48.729Z,49.33
2018-12-21T03:31:17.931Z,48.63
2018-12-21T03:33:46.864Z,50.43
2018-12-21T03:36:15.844Z,48.20
2018-12-21T03:38:44.713Z,48.60
2018-12-21T03:41:13.656Z,46.70
2018-12-21T03:43:42.550Z,50.57
2018-12-21T03:46:11.475Z,48.27
2018-12-21T03:48:40.386Z,49.63
2018-12-21T03:51:09.251Z,46.67
2018-12-21T03:53:38.145Z,46.70
2018-12-21T03:56:06.991Z,44.40
2018-12-21T03:58:35.842Z,44.80
2018-12-21T04:01:04.930Z,46.27
2018-12-21T04:03:34.182Z,47.33
2018-12-21T04:06:03.341Z,46.53
2018-12-21T04:08:32.486Z,47.83
2018-12-21T04:11:01.410Z,47.17
2018-12-21T04:13:30.259Z,46.60
2018-12-21T04:15:59.153Z,46.03
2018-12-21T04:18:28.024Z,46.20
2018-12-21T04:20:56.868Z,47.83
2018-12-21T04:23:25.937Z,45.27
2018-12-21T04:25:54.768Z,47.03
2018-12-21T04:28:23.621Z,46.93
2018-12-21T04:30:52.647Z,48.10
2018-12-21T04:33:21.510Z,44.27
2018-12-21T04:35:50.573Z,44.43
2018-12-21T04:38:19.413Z,45.30
2018-12-21T04:40:48.777Z,45.60
2018-12-21T04:43:17.657Z,45.20
2018-12-21T04:45:46.526Z,46.97
2018-12-21T04:48:16.148Z,45.77
2018-12-21T04:50:45.007Z,46.20
2018-12-21T04:53:13.872Z,44.07
2018-12-21T04:55:42.779Z,46.20
2018-12-21T04:58:11.637Z,46.60
2018-12-21T05:00:40.889Z,48.07
2018-12-21T05:03:09.931Z,46.67
2018-12-21T05:05:39.856Z,46.63
2018-12-21T05:08:08.791Z,46.93
2018-12-21T05:10:37.719Z,44.50
2018-12-21T05:13:06.589Z,46.67
2018-12-21T05:15:35.426Z,45.87
2018-12-21T05:18:04.970Z,46.27
2018-12-21T05:20:33.809Z,46.87
2018-12-21T05:23:02.669Z,44.87
2018-12-21T05:25:32.079Z,46.97
2018-12-21T05:28:00.916Z,46.17
2018-12-21T05:30:29.758Z,49.37
2018-12-21T05:32:58.634Z,49.87
2018-12-21T05:35:27.593Z,47.83
2018-12-21T05:37:56.482Z,49.97
2018-12-21T05:40:25.363Z,49.30
2018-12-21T05:42:54.299Z,48.63
2018-12-21T05:45:23.142Z,48.30
2018-12-21T05:47:53.628Z,47.30
2018-12-21T05:50:23.133Z,46.80
2018-12-21T05:52:53.573Z,48.03
2018-12-21T05:55:22.963Z,50.17
2018-12-21T05:57:51.838Z,47.53
2018-12-21T06:00:20.845Z,47.37
2018-12-21T06:02:49.837Z,56.10
2018-12-21T06:05:18.881Z,50.83
2018-12-21T06:07:56.817Z,48.70
2018-12-21T06:10:31.962Z,45.27
2018-12-21T06:13:00.941Z,45.80
2018-12-21T06:15:29.914Z,49.07
2018-12-21T06:17:58.897Z,46.57
2018-12-21T06:20:28.329Z,50.00
2018-12-21T06:22:57.269Z,50.90
2018-12-21T06:25:26.268Z,45.33
2018-12-21T06:27:55.716Z,52.43
2018-12-21T06:30:24.640Z,56.17
2018-12-21T06:32:53.600Z,47.27
2018-12-21T06:35:22.507Z,45.40
2018-12-21T06:37:51.455Z,43.87
2018-12-21T06:40:23.146Z,42.73
2018-12-21T06:42:55.209Z,43.83
2018-12-21T06:45:24.151Z,42.97
2018-12-21T06:47:52.996Z,43.60
2018-12-21T06:50:21.937Z,42.83
2018-12-21T06:52:50.825Z,44.87
2018-12-21T06:55:19.872Z,45.20
2018-12-21T06:57:48.871Z,43.83
2018-12-21T07:00:17.750Z,44.73
2018-12-21T07:02:46.720Z,45.83
2018-12-21T07:05:17.031Z,44.83
2018-12-21T07:07:46.055Z,44.63
2018-12-21T07:10:14.918Z,45.37
2018-12-21T07:12:43.799Z,45.40
2018-12-21T07:15:12.911Z,45.93
2018-12-21T07:17:41.790Z,45.90
2018-12-21T07:20:10.740Z,45.17
2018-12-21T07:22:39.619Z,46.13
2018-12-21T07:25:09.431Z,43.80
2018-12-21T07:27:39.771Z,44.37
2018-12-21T07:30:11.384Z,47.20
2018-12-21T07:32:40.361Z,51.13
2018-12-21T07:35:12.634Z,53.93
2018-12-21T07:37:41.723Z,64.50
2018-12-21T07:40:11.452Z,50.27
2018-12-21T07:42:40.423Z,54.17
2018-12-21T07:45:10.336Z,63.53
2018-12-21T07:47:39.485Z,69.77
2018-12-21T07:50:10.177Z,57.17
2018-12-21T07:52:39.198Z,53.07
2018-12-21T07:55:09.590Z,48.83
2018-12-21T07:57:38.510Z,48.70
2018-12-21T08:00:11.057Z,52.57
2018-12-21T08:02:40.046Z,62.87
2018-12-21T08:05:09.113Z,51.93
2018-12-21T08:07:38.065Z,53.53
2018-12-21T08:10:11.506Z,50.53
2018-12-21T08:12:40.427Z,45.43
2018-12-21T08:15:09.504Z,44.80
2018-12-21T08:17:38.509Z,41.90
2018-12-21T08:20:08.786Z,43.30
2018-12-21T08:22:37.942Z,41.30
2018-12-21T08:25:07.549Z,39.30
2018-12-21T08:27:36.673Z,38.27
2018-12-21T08:30:07.269Z,39.73
2018-12-21T08:32:36.269Z,37.17
2018-12-21T08:35:05.493Z,36.47
2018-12-21T08:37:34.486Z,36.53
2018-12-21T08:40:03.476Z,37.50
2018-12-21T08:42:32.346Z,38.00
2018-12-21T08:45:01.279Z,34.47
2018-12-21T08:47:30.373Z,35.73
2018-12-21T08:49:59.322Z,35.63
2018-12-21T08:52:28.478Z,34.63
2018-12-21T08:54:57.577Z,35.57
2018-12-21T08:57:26.494Z,36.17
2018-12-21T08:59:55.428Z,34.53
2018-12-21T09:02:24.399Z,35.40
2018-12-21T09:04:53.483Z,35.67
2018-12-21T09:07:22.675Z,34.77
2018-12-21T09:09:51.500Z,34.60
2018-12-21T09:12:20.459Z,35.10
2018-12-21T09:14:50.661Z,32.03
2018-12-21T09:17:19.509Z,34.93
2018-12-21T09:19:48.445Z,33.97
2018-12-21T09:22:17.693Z,35.27
2018-12-21T09:24:46.562Z,34.47
2018-12-21T09:27:15.509Z,34.63
2018-12-21T09:29:44.466Z,34.03
2018-12-21T09:32:13.427Z,34.37
2018-12-21T09:34:42.753Z,35.43
2018-12-21T09:37:11.718Z,34.83
2018-12-21T09:39:40.556Z,34.13
2018-12-21T09:42:09.482Z,34.50
2018-12-21T09:44:38.469Z,35.17
2018-12-21T09:47:07.400Z,34.47
2018-12-21T09:49:36.407Z,35.03
2018-12-21T09:52:05.397Z,37.47
2018-12-21T09:54:34.483Z,40.67
2018-12-21T09:57:03.392Z,36.63
2018-12-21T09:59:32.903Z,39.23
2018-12-21T10:02:01.754Z,43.60
2018-12-21T10:04:30.625Z,43.20
2018-12-21T10:06:59.468Z,39.97
2018-12-21T10:09:28.393Z,38.97
2018-12-21T10:11:57.425Z,37.67
2018-12-21T10:14:26.326Z,37.77
2018-12-21T10:16:55.256Z,36.73
2018-12-21T10:19:24.160Z,35.83
2018-12-21T10:21:53.021Z,36.03
2018-12-21T10:24:21.913Z,35.47
2018-12-21T10:26:51.101Z,34.37
2018-12-21T10:29:20.298Z,35.00
2018-12-21T10:31:49.220Z,36.07
2018-12-21T10:34:18.202Z,36.50
2018-12-21T10:36:47.054Z,36.20
2018-12-21T10:39:15.963Z,37.50
2018-12-21T10:41:44.818Z,35.07
2018-12-21T10:44:13.740Z,36.27
2018-12-21T10:46:42.776Z,35.03
2018-12-21T10:49:11.664Z,35.80
2018-12-21T10:51:41.268Z,35.40
2018-12-21T10:54:10.556Z,39.07
2018-12-21T10:56:39.784Z,38.40
2018-12-21T10:59:08.680Z,39.70
2018-12-21T11:01:37.867Z,36.07
2018-12-21T11:04:07.017Z,36.87
2018-12-21T11:06:35.957Z,34.57
2018-12-21T11:09:06.722Z,37.13
2018-12-21T11:11:35.662Z,37.63
2018-12-21T11:14:04.512Z,36.07
2018-12-21T11:16:33.438Z,36.23
2018-12-21T11:19:02.313Z,33.60
2018-12-21T11:21:31.304Z,35.80
2018-12-21T11:24:00.227Z,35.63
2018-12-21T11:26:29.789Z,33.80
2018-12-21T11:28:58.667Z,33.43
2018-12-21T11:31:27.595Z,32.77
2018-12-21T11:33:56.497Z,29.97
2018-12-21T11:36:25.426Z,31.70
2018-12-21T11:38:54.341Z,30.13
2018-12-21T11:41:23.234Z,31.90
2018-12-21T11:43:52.234Z,29.93
2018-12-21T11:46:21.120Z,31.77
2018-12-21T11:48:50.018Z,31.03
2018-12-21T11:51:18.891Z,29.47
2018-12-21T11:53:47.783Z,30.07
2018-12-21T11:56:16.717Z,30.10
2018-12-21T11:58:45.600Z,29.57
2018-12-21T12:01:14.527Z,28.37
2018-12-21T12:03:43.658Z,30.73
2018-12-21T12:06:12.655Z,29.90
2018-12-21T12:08:41.781Z,30.93
2018-12-21T12:11:10.753Z,31.30
2018-12-21T12:13:39.750Z,31.73
2018-12-21T12:16:08.717Z,34.53
2018-12-21T12:18:37.624Z,33.23
2018-12-21T12:21:06.814Z,31.90
2018-12-21T12:23:35.710Z,32.20
2018-12-21T12:26:04.720Z,34.33
2018-12-21T12:28:33.603Z,31.97
2018-12-21T12:31:02.506Z,31.70
2018-12-21T12:33:31.395Z,32.70
2018-12-21T12:36:00.279Z,30.57
2018-12-21T12:38:29.156Z,30.33
2018-12-21T12:41:06.381Z,31.53
2018-12-21T12:43:29.336Z,30.17
2018-12-21T12:45:58.362Z,30.80
2018-12-21T12:48:27.242Z,33.00
2018-12-21T12:50:56.163Z,31.50
2018-12-21T12:53:25.122Z,34.40
2018-12-21T12:55:54.045Z,32.87
2018-12-21T12:58:23.871Z,31.43
2018-12-21T13:00:52.748Z,32.33
2018-12-21T13:03:21.809Z,30.83
2018-12-21T13:05:50.709Z,32.50
2018-12-21T13:08:19.598Z,32.13
2018-12-21T13:10:48.517Z,31.70
2018-12-21T13:13:17.412Z,31.40
2018-12-21T13:15:46.293Z,32.60
2018-12-21T13:18:15.291Z,31.33
2018-12-21T13:20:44.271Z,33.17
2018-12-21T13:23:13.126Z,34.80
2018-12-21T13:25:42.034Z,33.77
2018-12-21T13:28:10.991Z,35.93
2018-12-21T13:30:39.872Z,36.23
2018-12-21T13:33:08.779Z,34.90
2018-12-21T13:35:37.750Z,37.87
2018-12-21T13:38:06.710Z,38.90
2018-12-21T13:40:35.649Z,37.00
2018-12-21T13:43:04.566Z,38.03
2018-12-21T13:45:33.505Z,37.97
2018-12-21T13:48:02.363Z,38.70
2018-12-21T13:50:31.349Z,38.43
2018-12-21T13:53:00.190Z,38.00
2018-12-21T13:55:29.079Z,38.37
2018-12-21T13:57:57.965Z,38.83
2018-12-21T14:00:26.867Z,40.27
2018-12-21T14:02:56.537Z,39.93
2018-12-21T14:05:25.531Z,40.87
2018-12-21T14:07:54.514Z,39.50
2018-12-21T14:10:24.319Z,40.10
2018-12-21T14:12:53.166Z,40.43
2018-12-21T14:15:22.095Z,40.77
2018-12-21T14:17:50.985Z,38.37
2018-12-21T14:20:19.824Z,40.37
2018-12-21T14:22:48.718Z,40.93
2018-12-21T14:25:17.589Z,42.33
2018-12-21T14:27:46.423Z,39.87
2018-12-21T14:30:15.435Z,41.00
2018-12-21T14:32:44.298Z,40.47
2018-12-21T14:35:13.179Z,39.57
2018-12-21T14:37:42.045Z,40.20
2018-12-21T14:40:10.947Z,39.47
2018-12-21T14:42:39.852Z,39.33
2018-12-21T14:45:09.127Z,40.63
2018-12-21T14:47:38.037Z,41.70
2018-12-21T14:50:08.897Z,39.50
2018-12-21T14:52:37.829Z,44.13
2018-12-21T14:55:07.897Z,43.63
2018-12-21T14:57:36.794Z,45.20
2018-12-21T15:00:10.371Z,46.17
2018-12-21T15:02:39.283Z,49.03
2018-12-21T15:05:08.653Z,50.13
2018-12-21T15:07:37.560Z,46.70
2018-12-21T15:10:08.589Z,46.27
2018-12-21T15:12:37.527Z,45.33
2018-12-21T15:15:07.820Z,45.20
2018-12-21T15:17:36.829Z,47.77
2018-12-21T15:20:09.067Z,47.57
2018-12-21T15:22:38.018Z,47.40
2018-12-21T15:25:07.802Z,45.53
2018-12-21T15:27:36.880Z,44.80
2018-12-21T15:30:08.577Z,46.27
2018-12-21T15:32:37.691Z,45.27
2018-12-21T15:35:06.890Z,46.50
2018-12-21T15:37:35.857Z,46.23
2018-12-21T15:40:06.140Z,46.13
2018-12-21T15:43:08.421Z,48.50
2018-12-21T15:48:40.440Z,48.47
2018-12-21T15:51:09.478Z,47.23
2018-12-21T15:53:38.470Z,47.13
2018-12-21T15:56:13.301Z,47.43
2018-12-21T15:58:45.914Z,43.30
2018-12-21T16:01:20.098Z,48.17
2018-12-21T16:03:56.082Z,45.70
2018-12-21T16:06:25.217Z,45.57
2018-12-21T16:11:53.342Z,45.07
2018-12-21T16:14:22.366Z,45.93
2018-12-21T16:16:52.702Z,48.57
2018-12-21T16:19:21.697Z,48.43
2018-12-21T16:21:50.845Z,47.47
2018-12-21T16:24:19.749Z,46.03
2018-12-21T16:26:48.719Z,50.53
2018-12-21T16:29:17.591Z,48.03
2018-12-21T16:31:46.429Z,48.90
2018-12-21T16:34:15.545Z,53.87
2018-12-21T16:36:44.774Z,51.73
2018-12-21T16:39:13.671Z,48.90
2018-12-21T16:41:42.562Z,49.87
2018-12-21T16:44:12.227Z,56.33
2018-12-21T16:46:41.182Z,55.67
2018-12-21T16:49:10.066Z,51.60
2018-12-21T16:51:38.908Z,52.30
2018-12-21T16:54:07.910Z,54.37
2018-12-21T16:56:36.814Z,55.23
2018-12-21T16:59:05.772Z,53.40
2018-12-21T17:01:34.708Z,53.53
2018-12-21T17:04:03.572Z,54.77
2018-12-21T17:06:32.546Z,57.10
2018-12-21T17:09:01.468Z,55.10
2018-12-21T17:11:30.515Z,51.70
2018-12-21T17:13:59.517Z,51.33
2018-12-21T17:16:28.404Z,55.70
2018-12-21T17:18:58.206Z,51.33
2018-12-21T17:21:27.181Z,52.30
2018-12-21T17:23:56.054Z,49.97
2018-12-21T17:26:24.982Z,48.83
2018-12-21T17:28:53.887Z,49.53
2018-12-21T17:31:22.730Z,48.20
2018-12-21T17:33:51.720Z,48.80
2018-12-21T17:36:20.668Z,49.33
2018-12-21T17:38:49.574Z,48.43
2018-12-21T17:41:18.538Z,50.43
2018-12-21T17:43:47.598Z,48.20
2018-12-21T17:46:17.608Z,47.63
2018-12-21T17:49:00.673Z,52.30
2018-12-21T17:51:38.480Z,48.07
2018-12-21T17:54:21.459Z,48.27
2018-12-21T17:56:59.928Z,50.00
2018-12-21T17:59:35.518Z,48.20
2018-12-21T18:02:13.915Z,46.00
2018-12-21T18:04:43.442Z,46.40
2018-12-21T18:07:12.602Z,48.30
2018-12-21T18:09:41.579Z,46.63
2018-12-21T18:12:10.650Z,47.00
2018-12-21T18:14:39.951Z,50.23
2018-12-21T18:17:10.810Z,46.87
2018-12-21T18:19:39.727Z,47.90
2018-12-21T18:22:15.318Z,47.87
2018-12-21T18:24:44.845Z,47.17
2018-12-21T18:27:13.706Z,45.17
2018-12-21T18:29:44.181Z,44.63
2018-12-21T18:32:36.152Z,44.10
2018-12-21T18:35:08.418Z,43.13
2018-12-21T18:37:42.868Z,44.60
2018-12-21T18:40:11.875Z,44.67
2018-12-21T18:42:40.890Z,42.97
2018-12-21T18:45:09.985Z,42.80
2018-12-21T18:47:38.941Z,42.07
2018-12-21T18:50:08.144Z,42.70
2018-12-21T18:52:37.222Z,44.37
2018-12-21T18:55:07.719Z,42.87
2018-12-21T18:57:36.758Z,42.07
2018-12-21T19:00:08.664Z,41.00
2018-12-21T19:02:37.769Z,43.27
2018-12-21T19:05:07.098Z,41.17
2018-12-21T19:07:35.990Z,40.30
2018-12-21T19:10:05.550Z,43.27
2018-12-21T19:12:34.477Z,42.37
2018-12-21T19:15:03.674Z,45.37
2018-12-21T19:17:38.827Z,44.70
2018-12-21T19:20:11.691Z,45.03
2018-12-21T19:22:40.989Z,48.17
2018-12-21T19:25:11.251Z,45.97
2018-12-21T19:27:40.337Z,46.27
2018-12-21T19:30:12.131Z,42.80
2018-12-21T19:32:42.753Z,44.90
2018-12-21T19:35:13.188Z,45.63
2018-12-21T19:37:42.123Z,49.13
2018-12-21T19:40:12.309Z,46.27
2018-12-21T19:42:42.842Z,47.10
2018-12-21T19:45:14.014Z,44.67
2018-12-21T19:47:43.492Z,44.13
2018-12-21T19:50:18.816Z,44.83
2018-12-21T19:52:51.182Z,43.93
2018-12-21T19:55:32.984Z,41.07
2018-12-21T19:58:07.910Z,43.03
2018-12-21T20:00:37.729Z,39.77
2018-12-21T20:03:10.422Z,45.27
2018-12-21T20:05:45.476Z,43.03
2018-12-21T20:08:15.332Z,42.73
2018-12-21T20:10:44.375Z,48.23
2018-12-21T20:13:13.412Z,45.17
2018-12-21T20:15:43.103Z,43.93
2018-12-21T20:18:12.059Z,42.27
2018-12-21T20:20:40.998Z,43.83
2018-12-21T20:23:10.067Z,41.10
2018-12-21T20:25:39.182Z,42.53
2018-12-21T20:28:08.211Z,42.73
2018-12-21T20:30:37.323Z,42.83
2018-12-21T20:33:06.569Z,45.63
2018-12-21T20:35:35.494Z,42.53
2018-12-21T20:38:04.807Z,47.43
2018-12-21T20:40:33.746Z,46.27
2018-12-21T20:43:02.659Z,44.27
2018-12-21T20:45:31.897Z,46.30
2018-12-21T20:48:01.377Z,44.60
2018-12-21T20:50:30.391Z,41.90
2018-12-21T20:52:59.497Z,44.20
2018-12-21T20:55:28.691Z,41.97
2018-12-21T20:58:02.488Z,42.97
2018-12-21T21:00:31.403Z,45.27
2018-12-21T21:03:00.436Z,41.10
2018-12-21T21:05:29.475Z,44.77
2018-12-21T21:07:58.570Z,41.27
2018-12-21T21:10:27.532Z,42.20
2018-12-21T21:12:56.829Z,41.73
2018-12-21T21:15:26.060Z,41.33
2018-12-21T21:17:55.181Z,39.23
2018-12-21T21:20:24.126Z,41.40
2018-12-21T21:22:53.156Z,39.13
2018-12-21T21:25:23.125Z,40.03
2018-12-21T21:27:52.166Z,38.33
2018-12-21T21:30:21.222Z,38.33
2018-12-21T21:32:50.229Z,40.83
2018-12-21T21:35:25.870Z,40.13
2018-12-21T21:37:54.870Z,42.07
2018-12-21T21:40:23.779Z,41.23
2018-12-21T21:42:57.434Z,41.10
2018-12-21T21:48:22.353Z,41.93
2018-12-21T21:50:51.567Z,42.67
2018-12-21T21:53:21.540Z,40.70
2018-12-21T21:55:50.863Z,41.70
2018-12-21T21:58:27.912Z,40.63
2018-12-21T22:01:02.839Z,42.13
2018-12-21T22:03:43.958Z,41.27
2018-12-21T22:06:13.617Z,40.50
2018-12-21T22:08:42.902Z,36.97
2018-12-21T22:11:12.030Z,39.07
2018-12-21T22:13:41.049Z,40.53
2018-12-21T22:16:10.039Z,39.00
2018-12-21T22:18:43.350Z,38.37
2018-12-21T22:21:12.502Z,40.40
2018-12-21T22:26:40.626Z,39.30
2018-12-21T22:29:14.998Z,38.07
2018-12-21T22:31:49.922Z,38.70
2018-12-21T22:34:24.811Z,38.77
2018-12-21T22:36:59.685Z,38.53
2018-12-21T22:39:34.420Z,38.57
2018-12-21T22:42:09.531Z,35.50
2018-12-21T22:44:53.093Z,35.03
2018-12-21T22:47:30.805Z,36.70
2018-12-21T22:50:06.766Z,35.13
2018-12-21T22:52:39.615Z,35.63
2018-12-21T22:55:14.214Z,35.27
2018-12-21T22:57:56.254Z,35.83
2018-12-21T23:00:43.495Z,38.77
2018-12-21T23:03:20.326Z,37.80
2018-12-21T23:05:52.993Z,37.83
2018-12-21T23:08:26.922Z,36.80
2018-12-21T23:11:01.800Z,37.43
2018-12-21T23:13:34.493Z,37.40
2018-12-21T23:16:09.323Z,38.67
2018-12-21T23:18:43.602Z,35.40
2018-12-21T23:21:18.538Z,37.30
2018-12-21T23:23:55.410Z,39.27
2018-12-21T23:26:28.276Z,38.20
2018-12-21T23:29:07.603Z,39.17
2018-12-21T23:31:42.068Z,38.07
2018-12-21T23:34:16.355Z,37.27
2018-12-21T23:36:49.139Z,38.97
2018-12-21T23:39:34.349Z,37.40
2018-12-21T23:42:07.515Z,36.97
2018-12-21T23:44:42.924Z,36.27
2018-12-21T23:47:20.946Z,36.67
2018-12-21T23:49:50.175Z,34.43
2018-12-21T23:52:19.236Z,34.20
2018-12-21T23:54:48.372Z,34.30
2018-12-21T23:57:17.509Z,33.50
2018-12-21T23:59:46.531Z,34.07
